14:54
Airports
Links
Donate
Help keep this website running!
PayPal
Bitcoin
METAR
TKPK 161400Z 07012KT 9999 -SHRA BKN018 27/23 Q1018
Current Weather Conditions at TKPK
MVFR 14:00:00 16-01-18
Altimeter:30.06 hg
Temp:27.0°c 81°f
Dew point:23.0°c 73°f
Wind:12 knots, 13.8 mph, 6 m/s, from 70°
Visibility:6.21 statute miles
1800(BKN) Broken
Past METAR reports
VFR 13:00:00 16-01-18
Altimeter:30.06 hg
Temp:28.0°c 82°f
Dew point:23.0°c 73°f
Wind:13 knots, 15 mph, 7 m/s, from 70°
Visibility:6.21 statute miles
2000(SCT) Scattered
TKPK 161300Z 07013KT 9999 SCT020 28/23 Q1018
VFR 12:00:00 16-01-18
Altimeter:30.03 hg
Temp:27.0°c 81°f
Dew point:24.0°c 75°f
Wind:10 knots, 11.5 mph, 5 m/s, from 70°
Visibility:6.21 statute miles
1600(SCT) Scattered
TKPK 161200Z 07010KT 9999 SCT016 27/24 Q1017
VFR 11:00:00 16-01-18
Altimeter:30.00 hg
Temp:25.0°c 77°f
Dew point:22.0°c 72°f
Wind:11 knots, 12.7 mph, 6 m/s, from 70°
Visibility:6.21 statute miles
1800(SCT) Scattered
TKPK 161100Z 07011KT 9999 SCT018 25/22 Q1016
VFR 10:00:00 16-01-18
Altimeter:29.97 hg
Temp:25.0°c 77°f
Dew point:22.0°c 72°f
Wind:11 knots, 12.7 mph, 6 m/s, from 60°
Visibility:6.21 statute miles
1600(SCT) Scattered
TKPK 161000Z 06011KT 9999 SCT016 25/22 Q1015
TAF
TKPK 161140Z 1612/1712 07010KT P6SM SCT020 AMD NOT SKED 1702/1711
Forecast at TKPK
12:00 16-01-18 to 12:00 17-01-18
Wind:10 Knots from 70°
Visibility:6.21 statute miles
2000SCT Scattered